Time;durP1;ratioP1;P1;durP2;ratioP2;P2;SDS_P1;SDS_P2;PMS_P1;PMS_P2;Temp;Humidity;BMP_temperature;BMP_pressure;BME280_temperature;BME280_humidity;BME280_pressure;Samples;Min_cycle;Max_cycle;Signal;HPM_P1;HPM_P2
2021/10/05 00:02:09;;;;;;;4.68;1.30;;;11.50;95.20;;;;;;5045883;28;20105;-64
2021/10/05 00:04:35;;;;;;;3.42;1.05;;;11.50;95.30;;;;;;5032239;28;20045;-64
2021/10/05 00:07:01;;;;;;;3.78;1.25;;;11.50;95.30;;;;;;5034984;28;20072;-64
2021/10/05 00:09:26;;;;;;;2.95;1.10;;;11.50;95.30;;;;;;5043270;28;20076;-64
2021/10/05 00:11:52;;;;;;;3.78;1.20;;;11.40;95.30;;;;;;5031834;28;20025;-64
2021/10/05 00:14:18;;;;;;;5.28;1.38;;;11.40;95.40;;;;;;5045029;28;20079;-64
2021/10/05 00:16:44;;;;;;;5.70;1.27;;;11.40;95.40;;;;;;5043390;28;20052;-64
2021/10/05 00:19:09;;;;;;;3.03;1.02;;;11.40;95.50;;;;;;5035027;28;20060;-64
2021/10/05 00:21:35;;;;;;;5.15;1.80;;;11.40;95.50;;;;;;5041092;28;20040;-64
2021/10/05 00:24:00;;;;;;;3.60;1.00;;;11.40;95.50;;;;;;5036882;28;20030;-64
2021/10/05 00:26:26;;;;;;;3.13;1.13;;;11.40;95.50;;;;;;5038625;28;20111;-64
2021/10/05 00:28:51;;;;;;;4.70;1.20;;;11.40;95.60;;;;;;5040904;28;20036;-64
2021/10/05 00:31:17;;;;;;;3.45;1.00;;;11.40;95.50;;;;;;5034899;28;20388;-64
2021/10/05 00:33:42;;;;;;;1.40;0.77;;;11.40;95.50;;;;;;5041619;28;20108;-64
2021/10/05 00:36:08;;;;;;;4.72;1.27;;;11.40;95.60;;;;;;5032618;28;20029;-64
2021/10/05 00:38:33;;;;;;;3.70;1.05;;;11.30;95.60;;;;;;5042678;28;20079;-64
2021/10/05 00:40:59;;;;;;;3.15;1.13;;;11.40;95.60;;;;;;5042966;28;20052;-64
2021/10/05 00:43:24;;;;;;;4.78;0.98;;;11.40;95.70;;;;;;5040015;28;20217;-63
2021/10/05 00:45:51;;;;;;;5.22;1.08;;;11.30;95.70;;;;;;5045013;28;20535;-63
2021/10/05 00:48:16;;;;;;;3.03;1.08;;;11.30;95.70;;;;;;5038155;28;20432;-63
2021/10/05 00:50:42;;;;;;;2.67;1.00;;;11.30;95.70;;;;;;5046704;28;20034;-64
2021/10/05 00:53:07;;;;;;;2.78;1.10;;;11.30;95.80;;;;;;5042245;28;20021;-64
2021/10/05 00:55:36;;;;;;;3.47;0.95;;;11.30;95.80;;;;;;5042180;28;20024;-64
2021/10/05 00:58:01;;;;;;;2.25;1.00;;;11.20;95.80;;;;;;5040804;28;20029;-64
2021/10/05 01:00:27;;;;;;;4.95;1.02;;;11.20;95.90;;;;;;5055039;28;20476;-64
2021/10/05 01:02:52;;;;;;;3.60;1.30;;;11.20;95.90;;;;;;5043777;28;20040;-64
2021/10/05 01:05:18;;;;;;;4.90;1.17;;;11.20;96.00;;;;;;5037766;28;20020;-64
2021/10/05 01:07:48;;;;;;;2.20;1.17;;;11.20;96.10;;;;;;5046184;28;20064;-64
2021/10/05 01:10:17;;;;;;;2.08;1.20;;;11.10;96.10;;;;;;5035212;28;20040;-63
2021/10/05 01:12:45;;;;;;;2.58;1.13;;;11.10;96.20;;;;;;5046482;28;20029;-64
2021/10/05 01:15:10;;;;;;;2.33;1.45;;;11.10;96.20;;;;;;5035089;28;20029;-64
2021/10/05 01:17:36;;;;;;;2.47;1.08;;;11.10;96.20;;;;;;5054900;28;20025;-63
2021/10/05 01:20:01;;;;;;;2.50;0.98;;;11.10;96.20;;;;;;5054911;28;20385;-64
2021/10/05 01:22:27;;;;;;;3.00;1.00;;;11.10;96.20;;;;;;5036599;28;20041;-64
2021/10/05 01:24:52;;;;;;;4.38;1.17;;;11.10;96.20;;;;;;5044626;28;20025;-64
2021/10/05 01:27:18;;;;;;;3.03;1.20;;;11.20;96.20;;;;;;5040574;28;20057;-64
2021/10/05 01:29:43;;;;;;;3.30;1.20;;;11.10;96.20;;;;;;5053344;28;20466;-64
2021/10/05 01:32:09;;;;;;;6.10;1.50;;;11.10;96.30;;;;;;5040592;28;20425;-64
2021/10/05 01:34:34;;;;;;;3.15;1.00;;;11.10;96.30;;;;;;5040688;28;20027;-64
2021/10/05 01:37:00;;;;;;;2.80;1.08;;;11.00;96.40;;;;;;5042833;28;20022;-63
2021/10/05 01:39:29;;;;;;;1.67;1.00;;;11.10;96.50;;;;;;5038493;28;20135;-64
2021/10/05 01:41:57;;;;;;;4.90;1.60;;;11.00;96.50;;;;;;5042996;28;20018;-64
2021/10/05 01:44:23;;;;;;;5.32;2.08;;;11.00;96.60;;;;;;5048018;28;20040;-63
2021/10/05 01:46:50;;;;;;;2.33;1.20;;;11.00;96.60;;;;;;5043070;28;20037;-63
2021/10/05 01:49:17;;;;;;;2.53;1.10;;;11.00;96.70;;;;;;5040102;28;20443;-64
2021/10/05 01:51:43;;;;;;;3.83;1.10;;;11.00;96.70;;;;;;5047492;28;20022;-63
2021/10/05 01:54:10;;;;;;;3.03;1.10;;;11.00;96.70;;;;;;5035755;28;20061;-64
2021/10/05 01:56:35;;;;;;;2.67;1.40;;;11.00;96.80;;;;;;5047650;28;20022;-63
2021/10/05 01:59:01;;;;;;;2.53;1.00;;;11.00;96.80;;;;;;5033359;28;20029;-63
2021/10/05 02:01:27;;;;;;;5.35;1.17;;;11.00;96.90;;;;;;5036454;28;20021;-64
2021/10/05 02:03:52;;;;;;;2.13;1.27;;;11.00;96.90;;;;;;5043321;28;20092;-63
2021/10/05 02:06:18;;;;;;;2.65;1.10;;;11.00;97.00;;;;;;5043517;28;20033;-63
2021/10/05 02:08:43;;;;;;;3.33;1.05;;;11.00;97.10;;;;;;5054380;28;20507;-63
2021/10/05 02:11:09;;;;;;;4.75;1.38;;;11.00;97.20;;;;;;5053856;28;20025;-64
2021/10/05 02:13:35;;;;;;;3.33;1.73;;;11.00;97.20;;;;;;5034718;28;20348;-64
2021/10/05 02:16:01;;;;;;;2.53;1.15;;;11.00;97.30;;;;;;5045021;28;20024;-63
2021/10/05 02:18:27;;;;;;;3.22;1.38;;;11.00;97.40;;;;;;5042521;28;20025;-64
2021/10/05 02:20:52;;;;;;;3.20;1.10;;;11.00;97.40;;;;;;5046408;28;20047;-63
2021/10/05 02:23:18;;;;;;;3.90;1.40;;;10.90;97.50;;;;;;5033798;28;20036;-63
2021/10/05 02:25:44;;;;;;;2.67;1.20;;;11.00;97.50;;;;;;5048279;28;20033;-64
2021/10/05 02:28:09;;;;;;;1.92;1.05;;;11.00;97.60;;;;;;5048187;28;20515;-63
2021/10/05 02:30:35;;;;;;;4.35;1.17;;;10.90;97.60;;;;;;5032634;28;20025;-63
2021/10/05 02:33:00;;;;;;;2.78;1.10;;;10.90;97.60;;;;;;5047393;28;20023;-63
2021/10/05 02:35:26;;;;;;;2.83;1.42;;;10.90;97.70;;;;;;5033625;28;20061;-63
2021/10/05 02:37:51;;;;;;;3.83;1.40;;;10.90;97.70;;;;;;5047506;28;20112;-63
2021/10/05 02:40:17;;;;;;;2.30;1.10;;;10.80;97.80;;;;;;5032248;28;20028;-63
2021/10/05 02:42:43;;;;;;;2.67;1.25;;;10.80;97.90;;;;;;5046824;28;20033;-63
2021/10/05 02:45:09;;;;;;;5.20;1.67;;;10.80;98.00;;;;;;5037801;28;20472;-63
2021/10/05 02:47:34;;;;;;;3.50;1.77;;;10.80;98.00;;;;;;5051985;28;20075;-63
2021/10/05 02:50:00;;;;;;;3.80;1.55;;;10.80;98.10;;;;;;5053597;28;20021;-63
2021/10/05 02:52:25;;;;;;;4.80;1.63;;;10.80;98.10;;;;;;5053444;28;20029;-63
2021/10/05 02:54:51;;;;;;;3.45;1.50;;;10.80;98.20;;;;;;5053251;28;20013;-63
2021/10/05 02:57:19;;;;;;;2.67;1.35;;;10.70;98.20;;;;;;5053447;28;20116;-63
2021/10/05 02:59:46;;;;;;;2.17;1.20;;;10.70;98.30;;;;;;5052653;28;20025;-63
2021/10/05 03:02:12;;;;;;;2.50;1.30;;;10.70;98.40;;;;;;5052207;28;20029;-63
2021/10/05 03:04:39;;;;;;;2.78;1.65;;;10.70;98.50;;;;;;5051914;28;20025;-63
2021/10/05 03:07:05;;;;;;;4.35;1.75;;;10.70;98.50;;;;;;5053250;28;20033;-63
2021/10/05 03:09:32;;;;;;;1.58;1.30;;;10.70;98.60;;;;;;5053127;28;20023;-63
2021/10/05 03:11:57;;;;;;;3.83;1.52;;;10.70;98.70;;;;;;5053330;28;20021;-63
2021/10/05 03:14:23;;;;;;;3.92;1.33;;;10.70;98.70;;;;;;5053110;28;20484;-63
2021/10/05 03:16:48;;;;;;;2.75;1.67;;;10.70;98.70;;;;;;5052944;28;20120;-63
2021/10/05 03:19:14;;;;;;;2.08;1.52;;;10.70;98.80;;;;;;5053158;28;20477;-63
2021/10/05 03:21:40;;;;;;;4.47;1.30;;;10.60;98.80;;;;;;5051649;28;20033;-63
2021/10/05 03:24:06;;;;;;;3.55;1.45;;;10.70;98.90;;;;;;5052817;28;20040;-63
2021/10/05 03:26:32;;;;;;;4.20;1.40;;;10.60;99.00;;;;;;5051714;28;20029;-63
2021/10/05 03:28:57;;;;;;;3.63;1.48;;;10.70;99.00;;;;;;5051630;28;20052;-63
2021/10/05 03:31:23;;;;;;;3.92;1.45;;;10.60;99.00;;;;;;5051589;28;20496;-63
2021/10/05 03:33:48;;;;;;;3.42;1.45;;;10.60;99.10;;;;;;5052759;28;20021;-63
2021/10/05 03:36:14;;;;;;;2.20;1.40;;;10.60;99.20;;;;;;5052914;28;20388;-63
2021/10/05 03:38:41;;;;;;;2.40;1.67;;;10.60;99.20;;;;;;5052613;28;20044;-63
2021/10/05 03:41:07;;;;;;;6.78;1.33;;;10.60;99.30;;;;;;5052823;28;20098;-63
2021/10/05 03:43:33;;;;;;;3.97;1.83;;;10.60;99.30;;;;;;5052669;28;20033;-63
2021/10/05 03:45:59;;;;;;;2.53;1.80;;;10.60;99.40;;;;;;5052473;28;20029;-63
2021/10/05 03:48:25;;;;;;;2.80;1.63;;;10.60;99.40;;;;;;5052670;28;20453;-63
2021/10/05 03:50:51;;;;;;;6.35;2.08;;;10.60;99.40;;;;;;5052674;28;20021;-63
2021/10/05 03:53:18;;;;;;;3.22;1.40;;;10.60;99.50;;;;;;5052413;28;20029;-63
2021/10/05 03:55:49;;;;;;;3.88;1.50;;;10.60;99.50;;;;;;5052762;28;20061;-63
2021/10/05 03:58:15;;;;;;;2.88;1.42;;;10.60;99.60;;;;;;5051437;28;20064;-63
2021/10/05 04:00:41;;;;;;;4.53;1.67;;;10.60;99.60;;;;;;5052680;28;20110;-63
2021/10/05 04:03:41;;;;;;;3.45;1.95;;;10.60;99.70;;;;;;5052387;28;20049;-63
2021/10/05 04:06:08;;;;;;;4.90;2.10;;;10.60;99.70;;;;;;5052455;28;20024;-63
2021/10/05 04:08:35;;;;;;;3.92;1.73;;;10.50;99.80;;;;;;5052301;28;20082;-63
2021/10/05 04:11:01;;;;;;;4.63;1.85;;;10.50;99.80;;;;;;5054649;28;20017;-63
2021/10/05 04:13:27;;;;;;;3.63;1.80;;;10.50;99.90;;;;;;5055161;28;20029;-63
2021/10/05 04:15:52;;;;;;;4.50;1.80;;;10.50;99.90;;;;;;5056466;28;20029;-63
2021/10/05 04:18:18;;;;;;;4.40;2.55;;;10.60;99.90;;;;;;5055967;28;20029;-63
2021/10/05 04:20:43;;;;;;;5.88;2.40;;;10.50;99.90;;;;;;5056333;28;20033;-63
2021/10/05 04:23:09;;;;;;;2.70;1.80;;;10.50;99.90;;;;;;5056391;28;20472;-63
2021/10/05 04:25:35;;;;;;;3.92;1.70;;;10.50;99.90;;;;;;5056156;28;20035;-63
2021/10/05 04:28:00;;;;;;;4.30;1.75;;;10.50;99.90;;;;;;5056318;28;20025;-63
2021/10/05 04:30:26;;;;;;;5.43;1.75;;;10.50;99.90;;;;;;5056209;28;20415;-63
2021/10/05 04:32:51;;;;;;;2.67;1.95;;;10.50;99.90;;;;;;5055729;28;20543;-63
2021/10/05 04:35:25;;;;;;;2.55;1.75;;;10.50;99.90;;;;;;5056121;28;20025;-63
2021/10/05 04:37:51;;;;;;;2.78;1.55;;;10.50;99.90;;;;;;5056096;28;20028;-63
2021/10/05 04:40:16;;;;;;;3.53;1.70;;;10.50;99.90;;;;;;5054696;28;20017;-63
2021/10/05 04:42:42;;;;;;;4.63;1.60;;;10.50;99.90;;;;;;5055998;28;20025;-63
2021/10/05 04:45:08;;;;;;;3.05;1.88;;;10.50;99.90;;;;;;5055747;28;20025;-63
2021/10/05 04:47:35;;;;;;;3.05;1.45;;;10.50;99.90;;;;;;5055328;28;20136;-63
2021/10/05 04:50:03;;;;;;;2.70;1.65;;;10.50;99.90;;;;;;5055976;28;20017;-63
2021/10/05 04:52:28;;;;;;;2.85;1.83;;;10.50;99.90;;;;;;5055582;28;20041;-63
2021/10/05 04:54:54;;;;;;;4.22;1.80;;;10.50;99.90;;;;;;5055726;28;20072;-63
2021/10/05 04:57:19;;;;;;;4.15;1.90;;;10.50;99.90;;;;;;5056100;28;20021;-63
2021/10/05 04:59:44;;;;;;;3.50;1.30;;;10.50;99.90;;;;;;5055603;28;20033;-63
2021/10/05 05:02:10;;;;;;;4.72;2.13;;;10.50;99.90;;;;;;5054303;28;20025;-63
2021/10/05 05:04:36;;;;;;;4.70;1.25;;;10.60;99.90;;;;;;5055202;28;20439;-63
2021/10/05 05:07:02;;;;;;;2.10;1.27;;;10.60;99.80;;;;;;5055536;28;20052;-63
2021/10/05 05:09:27;;;;;;;3.00;1.40;;;10.60;99.80;;;;;;5055277;28;20021;-63
2021/10/05 05:11:53;;;;;;;8.18;2.05;;;10.60;99.80;;;;;;5055497;28;20473;-63
2021/10/05 05:14:19;;;;;;;3.13;1.73;;;10.60;99.70;;;;;;5054973;28;20029;-63
2021/10/05 05:16:44;;;;;;;1.55;1.23;;;10.60;99.70;;;;;;5053231;28;20091;-63
2021/10/05 05:19:10;;;;;;;5.30;1.40;;;10.60;99.60;;;;;;5055289;28;20472;-63
2021/10/05 05:21:36;;;;;;;3.40;1.42;;;10.70;99.60;;;;;;5054625;28;20477;-63
2021/10/05 05:24:02;;;;;;;4.63;1.73;;;10.70;99.50;;;;;;5053313;28;20381;-63
2021/10/05 05:26:28;;;;;;;3.10;1.83;;;10.70;99.40;;;;;;5054496;28;20396;-63
2021/10/05 05:28:55;;;;;;;2.90;1.25;;;10.70;99.30;;;;;;5053623;28;20033;-63
2021/10/05 05:31:21;;;;;;;2.53;1.27;;;10.70;99.20;;;;;;5054963;28;20021;-63
2021/10/05 05:33:46;;;;;;;7.90;2.28;;;10.80;99.20;;;;;;5054829;28;20040;-63
2021/10/05 05:36:12;;;;;;;2.83;1.55;;;10.80;99.20;;;;;;5053753;28;20029;-63
2021/10/05 05:38:45;;;;;;;2.15;1.40;;;10.80;99.10;;;;;;5054886;28;20082;-63
2021/10/05 05:41:11;;;;;;;5.10;1.90;;;10.80;99.10;;;;;;5055114;28;20489;-63
2021/10/05 05:44:00;;;;;;;1.85;1.20;;;10.80;99.10;;;;;;5054756;28;20148;-63
2021/10/05 05:46:25;;;;;;;4.03;1.33;;;10.80;99.10;;;;;;5054493;28;20045;-63
2021/10/05 05:48:51;;;;;;;2.30;1.42;;;10.80;99.10;;;;;;5054346;28;20021;-63
2021/10/05 05:51:16;;;;;;;3.20;1.50;;;10.80;99.20;;;;;;5054129;28;20028;-63
2021/10/05 05:53:43;;;;;;;6.22;2.60;;;10.70;99.20;;;;;;5045358;28;20025;-63
2021/10/05 05:56:09;;;;;;;4.47;1.70;;;10.70;99.20;;;;;;5054412;28;20032;-63
2021/10/05 05:59:05;;;;;;;4.53;2.15;;;10.70;99.20;;;;;;5054555;28;20025;-63
2021/10/05 06:12:30;;;;;;;5.28;3.40;;;10.60;99.60;;;;;;4938135;28;20098;-63
2021/10/05 06:18:24;;;;;;;8.97;3.57;;;10.70;99.70;;;;;;4926565;29;20607;-63
2021/10/05 06:24:02;;;;;;;4.72;3.40;;;10.70;99.80;;;;;;5018723;28;20034;-63
2021/10/05 06:26:27;;;;;;;3.90;3.17;;;10.60;99.80;;;;;;5048475;28;20032;-63
2021/10/05 06:29:16;;;;;;;5.53;3.35;;;10.70;99.70;;;;;;5041862;28;20121;-63
2021/10/05 06:31:42;;;;;;;5.45;3.67;;;10.70;99.70;;;;;;5033961;28;20543;-63
2021/10/05 06:34:07;;;;;;;5.15;3.45;;;10.80;99.60;;;;;;5033073;28;20029;-63
2021/10/05 06:36:34;;;;;;;7.13;4.20;;;10.80;99.60;;;;;;5033824;28;20504;-63
2021/10/05 06:38:59;;;;;;;6.45;3.67;;;10.80;99.50;;;;;;5044085;28;20022;-63
2021/10/05 06:41:25;;;;;;;8.65;3.53;;;10.80;99.50;;;;;;5033852;28;20504;-63
2021/10/05 06:44:01;;;;;;;5.10;3.67;;;10.80;99.40;;;;;;5033750;28;20082;-63
2021/10/05 06:46:56;;;;;;;6.32;3.60;;;10.90;99.40;;;;;;5043528;28;20123;-63
2021/10/05 06:49:21;;;;;;;3.78;3.05;;;10.80;99.40;;;;;;5047367;28;20536;-63
2021/10/05 06:51:47;;;;;;;6.68;3.42;;;10.90;99.40;;;;;;5045523;28;20113;-63
2021/10/05 06:54:12;;;;;;;5.20;3.83;;;10.90;99.40;;;;;;5046375;28;20059;-63
2021/10/05 06:56:38;;;;;;;5.72;3.60;;;10.90;99.40;;;;;;5041181;28;20056;-63
2021/10/05 06:59:03;;;;;;;7.20;4.50;;;11.00;99.30;;;;;;5044754;28;20109;-63
2021/10/05 07:01:29;;;;;;;5.57;3.75;;;11.00;99.30;;;;;;5049047;28;20036;-63
2021/10/05 07:03:54;;;;;;;5.80;4.00;;;11.00;99.40;;;;;;5049770;28;20520;-63
2021/10/05 07:06:20;;;;;;;6.10;4.10;;;11.10;99.30;;;;;;5047236;28;20404;-63
2021/10/05 07:08:46;;;;;;;6.88;4.30;;;11.10;99.40;;;;;;5051427;28;20025;-63
2021/10/05 07:11:11;;;;;;;5.40;3.92;;;11.10;99.30;;;;;;5057331;28;20028;-63
2021/10/05 07:13:37;;;;;;;9.82;4.07;;;11.10;99.40;;;;;;5068882;28;20078;-63
2021/10/05 07:16:28;;;;;;;5.43;3.83;;;11.20;99.60;;;;;;5048828;28;20044;-64
2021/10/05 07:19:43;;;;;;;6.25;4.10;;;11.20;99.20;;;;;;5049062;28;20032;-63
2021/10/05 07:29:18;;;;;;;5.13;4.35;;;11.40;99.20;;;;;;4893277;28;20570;-63
2021/10/05 07:31:44;;;;;;;7.88;4.13;;;11.40;99.30;;;;;;5011006;28;20033;-63
2021/10/05 07:34:09;;;;;;;6.18;4.50;;;11.50;99.20;;;;;;5010821;28;20033;-63
2021/10/05 07:36:35;;;;;;;8.65;4.20;;;11.50;99.00;;;;;;5031243;28;20048;-63
2021/10/05 07:39:00;;;;;;;5.63;4.05;;;11.50;98.90;;;;;;5027698;28;20029;-63
2021/10/05 07:41:27;;;;;;;7.13;4.28;;;11.60;98.90;;;;;;5036862;28;20036;-63
2021/10/05 07:43:52;;;;;;;4.78;3.70;;;11.70;98.80;;;;;;5051859;28;20017;-63
2021/10/05 07:46:19;;;;;;;5.72;3.92;;;11.70;98.50;;;;;;5051300;28;20103;-63
2021/10/05 07:48:45;;;;;;;5.18;4.07;;;11.80;98.40;;;;;;5043040;28;20428;-64
2021/10/05 07:51:42;;;;;;;6.97;4.53;;;11.90;98.30;;;;;;5047001;28;20552;-64
2021/10/05 07:54:08;;;;;;;6.05;4.30;;;11.90;98.10;;;;;;5047393;28;20075;-64
2021/10/05 07:56:40;;;;;;;5.63;3.55;;;11.90;98.00;;;;;;5048254;28;20026;-64
2021/10/05 07:59:26;;;;;;;4.88;3.50;;;12.00;98.00;;;;;;5045541;28;20105;-64
2021/10/05 08:01:52;;;;;;;6.97;3.97;;;12.10;97.90;;;;;;5020886;28;20083;-64
2021/10/05 08:04:18;;;;;;;5.40;3.40;;;12.10;97.90;;;;;;5049566;28;20100;-64
2021/10/05 08:06:44;;;;;;;5.57;3.83;;;12.20;97.70;;;;;;5046531;28;20021;-64
2021/10/05 08:12:31;;;;;;;5.35;3.92;;;12.30;97.40;;;;;;5036585;28;20029;-64
2021/10/05 08:14:56;;;;;;;6.57;4.03;;;12.40;97.40;;;;;;5023072;28;20040;-64
2021/10/05 08:17:22;;;;;;;5.63;3.80;;;12.50;97.00;;;;;;5022914;28;20087;-65
2021/10/05 08:19:48;;;;;;;6.35;3.75;;;12.60;97.00;;;;;;5045285;28;20532;-64
2021/10/05 08:22:16;;;;;;;6.22;3.30;;;12.60;96.80;;;;;;5048008;28;20016;-64
2021/10/05 08:24:42;;;;;;;5.07;3.47;;;12.70;96.50;;;;;;5048346;28;20049;-64
2021/10/05 08:27:21;;;;;;;4.72;3.53;;;12.70;96.50;;;;;;5049723;28;20433;-64
2021/10/05 08:29:48;;;;;;;5.18;3.33;;;12.80;96.60;;;;;;5034233;28;20200;-64
2021/10/05 08:32:15;;;;;;;8.48;3.92;;;12.90;96.70;;;;;;5032332;28;20028;-64
2021/10/05 08:34:41;;;;;;;6.07;3.53;;;13.00;96.10;;;;;;5032195;28;20071;-64
2021/10/05 08:37:07;;;;;;;6.47;3.67;;;13.00;96.00;;;;;;5047379;28;20515;-64
2021/10/05 08:39:33;;;;;;;5.00;3.42;;;13.10;95.90;;;;;;5051980;28;20033;-63
2021/10/05 08:41:59;;;;;;;5.38;3.65;;;13.20;96.00;;;;;;5052048;28;20029;-63
2021/10/05 08:44:25;;;;;;;6.22;3.63;;;13.30;95.70;;;;;;5052119;28;20128;-64
2021/10/05 08:53:57;;;;;;;5.32;3.17;;;13.60;95.70;;;;;;4906092;29;20035;-64
2021/10/05 08:56:23;;;;;;;5.65;3.45;;;13.70;95.50;;;;;;4914555;28;20035;-64
2021/10/05 08:58:48;;;;;;;5.03;3.28;;;13.70;95.50;;;;;;4991069;28;20401;-63
2021/10/05 09:01:16;;;;;;;5.00;3.80;;;13.80;95.20;;;;;;5021116;28;20041;-64
2021/10/05 09:03:51;;;;;;;5.10;2.78;;;13.90;95.00;;;;;;5035258;28;20088;-64
2021/10/05 09:06:43;;;;;;;;;;;;;;;;;;;;;
2021/10/05 09:09:09;;;;;;;5.18;3.30;;;14.00;94.70;;;;;;5055242;28;20040;-63
2021/10/05 09:15:30;;;;;;;5.75;3.05;;;14.30;94.20;;;;;;4993451;28;20513;-64
2021/10/05 09:17:58;;;;;;;7.22;2.92;;;14.30;94.50;;;;;;5002312;28;20485;-64
2021/10/05 09:20:25;;;;;;;5.13;2.97;;;14.50;94.50;;;;;;5038661;28;20124;-64
2021/10/05 09:23:00;;;;;;;4.32;2.78;;;14.60;94.20;;;;;;5055203;28;20021;-64
2021/10/05 09:25:36;;;;;;;7.15;3.17;;;14.70;93.80;;;;;;5055117;28;20024;-63
2021/10/05 09:28:14;;;;;;;6.03;2.58;;;14.80;93.70;;;;;;5055138;28;20047;-64
2021/10/05 09:30:40;;;;;;;4.30;2.40;;;15.00;93.30;;;;;;5054929;28;20052;-64
2021/10/05 09:33:06;;;;;;;5.47;2.60;;;15.10;93.50;;;;;;5053156;28;20064;-64
2021/10/05 09:36:58;;;;;;;;;;;;;;;;;;;;;
2021/10/05 09:39:13;;;;;;;7.22;1.95;;;15.30;92.70;;;;;;5053903;28;20064;-64
2021/10/05 09:41:38;;;;;;;7.25;1.98;;;15.40;92.70;;;;;;5052854;28;20049;-64
2021/10/05 09:44:07;;;;;;;5.32;1.98;;;15.60;92.60;;;;;;5052441;28;20037;-64
2021/10/05 09:46:33;;;;;;;3.38;1.70;;;15.70;92.40;;;;;;5034727;28;20073;-64
2021/10/05 09:49:27;;;;;;;;;;;;;;;;;;;;;
2021/10/05 09:52:01;;;;;;;4.07;1.75;;;16.00;91.50;;;;;;5034841;28;20032;-64
2021/10/05 09:54:28;;;;;;;4.28;1.80;;;16.10;91.20;;;;;;5052568;28;20477;-64
2021/10/05 09:56:54;;;;;;;6.47;1.90;;;16.30;91.00;;;;;;5054663;28;20021;-64
2021/10/05 09:59:20;;;;;;;5.45;1.80;;;16.40;91.00;;;;;;5036658;28;20083;-64
2021/10/05 10:01:46;;;;;;;3.47;1.83;;;16.60;90.50;;;;;;5033875;28;20037;-64
2021/10/05 10:04:11;;;;;;;4.13;1.92;;;16.70;90.10;;;;;;5035020;28;20193;-65
2021/10/05 10:06:38;;;;;;;6.45;1.50;;;16.90;89.70;;;;;;5033074;28;20029;-64
2021/10/05 10:09:05;;;;;;;3.85;1.38;;;17.10;90.10;;;;;;5044716;28;20029;-64
2021/10/05 10:11:31;;;;;;;5.00;1.25;;;17.40;88.30;;;;;;5039377;28;20071;-65
2021/10/05 10:13:59;;;;;;;4.93;1.25;;;17.50;86.30;;;;;;5052602;28;20409;-64
2021/10/05 10:16:25;;;;;;;4.97;1.15;;;17.70;86.20;;;;;;5053141;28;20053;-65
2021/10/05 10:18:58;;;;;;;6.07;1.13;;;18.10;84.50;;;;;;5053120;28;20071;-65
2021/10/05 10:21:37;;;;;;;3.03;1.10;;;18.20;83.50;;;;;;5050279;28;20036;-65
2021/10/05 10:24:10;;;;;;;3.00;1.00;;;19.40;81.60;;;;;;5051471;28;20103;-65
2021/10/05 10:26:56;;;;;;;3.80;1.00;;;20.90;73.90;;;;;;5052617;28;20021;-65
2021/10/05 10:29:29;;;;;;;1.55;0.82;;;21.90;69.10;;;;;;5024539;28;20083;-65
2021/10/05 10:31:54;;;;;;;3.67;0.90;;;22.60;68.00;;;;;;5045283;28;20039;-65
2021/10/05 10:34:28;;;;;;;5.93;0.70;;;23.70;63.20;;;;;;5051524;28;20443;-65
2021/10/05 10:36:54;;;;;;;3.58;1.38;;;24.10;60.30;;;;;;5051408;28;20499;-65
2021/10/05 10:42:29;;;;;;;2.67;1.02;;;25.30;58.50;;;;;;5036388;28;20033;-65
2021/10/05 10:44:55;;;;;;;3.22;1.10;;;25.10;57.70;;;;;;5024892;28;20070;-65
2021/10/05 10:47:23;;;;;;;2.30;1.00;;;25.70;56.40;;;;;;5029716;28;20563;-66
2021/10/05 10:49:59;;;;;;;2.38;1.08;;;26.00;53.90;;;;;;5049277;28;20028;-66
2021/10/05 10:52:33;;;;;;;2.28;0.88;;;24.10;56.00;;;;;;5034844;28;20481;-65
2021/10/05 10:54:59;;;;;;;3.47;0.70;;;22.90;59.20;;;;;;5049797;28;20492;-65
2021/10/05 10:57:57;;;;;;;5.93;1.17;;;21.40;62.80;;;;;;5046730;28;20029;-65
2021/10/05 11:00:28;;;;;;;5.53;1.20;;;20.30;66.40;;;;;;5032032;28;20028;-64
2021/10/05 11:02:59;;;;;;;3.47;1.00;;;19.60;69.50;;;;;;5025493;28;20048;-65
2021/10/05 11:08:24;;;;;;;1.20;0.60;;;19.10;72.20;;;;;;5038859;28;20039;-65
2021/10/05 11:10:50;;;;;;;3.25;0.90;;;19.80;70.90;;;;;;5044121;28;20017;-65
2021/10/05 11:13:15;;;;;;;3.50;1.00;;;19.70;71.70;;;;;;5048695;28;20465;-64
2021/10/05 11:15:47;;;;;;;3.58;0.82;;;19.20;72.30;;;;;;5047535;28;20076;-65
2021/10/05 11:18:22;;;;;;;8.60;1.25;;;19.00;73.10;;;;;;5048193;28;20058;-64
2021/10/05 11:20:48;;;;;;;3.28;0.88;;;18.70;73.20;;;;;;5046803;28;20121;-65
2021/10/05 11:23:17;;;;;;;4.45;0.88;;;18.40;74.30;;;;;;5049231;28;20701;-65
2021/10/05 11:25:52;;;;;;;2.33;0.75;;;18.20;76.00;;;;;;5042577;28;20091;-65
2021/10/05 11:28:50;;;;;;;5.47;1.00;;;18.10;75.70;;;;;;5044061;28;20040;-64
2021/10/05 11:31:15;;;;;;;3.95;1.08;;;18.00;76.70;;;;;;5043914;28;20031;-65
2021/10/05 11:34:02;;;;;;;3.63;0.90;;;17.80;77.50;;;;;;5044590;28;20021;-64
2021/10/05 11:36:28;;;;;;;2.78;0.90;;;17.80;78.00;;;;;;5046704;28;20024;-64
2021/10/05 11:38:54;;;;;;;2.38;0.90;;;17.70;78.30;;;;;;5043892;28;20029;-64
2021/10/05 11:41:21;;;;;;;6.88;1.63;;;17.60;78.30;;;;;;5038948;28;20456;-64
2021/10/05 11:43:49;;;;;;;3.67;0.80;;;17.60;78.80;;;;;;5048508;28;20119;-64
2021/10/05 11:46:20;;;;;;;6.03;0.93;;;17.50;79.20;;;;;;5051511;28;22020;-64
2021/10/05 11:48:54;;;;;;;3.22;1.15;;;17.50;79.70;;;;;;5042436;28;20029;-64
2021/10/05 11:51:22;;;;;;;4.00;0.90;;;17.50;79.90;;;;;;5034516;28;20021;-64
2021/10/05 11:54:04;;;;;;;;;;;;;;;;;;;;;
2021/10/05 11:56:30;;;;;;;3.20;1.10;;;17.40;81.30;;;;;;5037688;28;20354;-65
2021/10/05 12:09:00;;;;;;;4.20;0.90;;;17.30;82.40;;;;;;4930276;28;20039;-64
2021/10/05 12:11:41;;;;;;;4.53;0.65;;;17.20;83.20;;;;;;5019461;28;20099;-65
2021/10/05 12:14:23;;;;;;;3.53;0.60;;;17.30;82.20;;;;;;5045452;28;20032;-64
2021/10/05 12:21:09;;;;;;;1.65;0.50;;;17.20;83.10;;;;;;5003600;28;20033;-64
2021/10/05 12:23:35;;;;;;;4.40;0.65;;;17.20;85.10;;;;;;4978999;28;20041;-64
2021/10/05 12:26:50;;;;;;;1.92;0.47;;;17.10;84.60;;;;;;5039081;28;20099;-64
2021/10/05 12:32:38;;;;;;;1.90;0.50;;;17.00;84.20;;;;;;5034761;28;20158;-64
2021/10/05 12:35:27;;;;;;;1.30;0.38;;;17.00;84.20;;;;;;5038121;28;20475;-65
2021/10/05 12:38:17;;;;;;;4.25;0.52;;;16.90;85.40;;;;;;5047477;28;20025;-64
2021/10/05 12:40:56;;;;;;;1.58;0.40;;;16.80;86.30;;;;;;5039491;28;20090;-64
2021/10/05 12:43:24;;;;;;;2.20;0.40;;;16.70;87.50;;;;;;5037290;28;20104;-64
2021/10/05 12:45:53;;;;;;;1.73;0.38;;;16.60;88.40;;;;;;5047328;28;20021;-65
2021/10/05 12:48:30;;;;;;;1.77;0.40;;;16.50;89.10;;;;;;5036361;28;20041;-64
2021/10/05 12:50:55;;;;;;;4.57;0.50;;;16.60;89.50;;;;;;5045954;28;20074;-64
2021/10/05 12:53:21;;;;;;;2.95;0.98;;;16.50;90.00;;;;;;5044739;28;20088;-65
2021/10/05 12:55:46;;;;;;;4.13;0.43;;;16.40;90.30;;;;;;5053814;28;20074;-65
2021/10/05 12:58:12;;;;;;;1.52;0.50;;;16.40;90.70;;;;;;5043568;28;20022;-65
2021/10/05 13:00:38;;;;;;;2.40;0.50;;;16.40;91.20;;;;;;5039223;28;20174;-65
2021/10/05 13:03:48;;;;;;;1.70;0.55;;;16.30;91.50;;;;;;5045237;28;20513;-65
2021/10/05 13:07:20;;;;;;;3.72;0.98;;;16.30;91.50;;;;;;5042217;28;20087;-65
2021/10/05 13:14:34;;;;;;;3.28;0.60;;;15.50;93.90;;;;;;5030306;28;20078;-65
2021/10/05 13:20:17;;;;;;;1.33;0.43;;;15.10;96.50;;;;;;4926435;29;20039;-65
2021/10/05 13:22:44;;;;;;;4.90;1.10;;;14.90;97.20;;;;;;4962389;28;20031;-65
2021/10/05 13:25:11;;;;;;;4.25;0.90;;;14.90;97.80;;;;;;5029633;28;20065;-65
2021/10/05 13:27:37;;;;;;;2.30;0.47;;;14.80;98.30;;;;;;5045893;28;20547;-64
2021/10/05 13:30:05;;;;;;;2.35;0.60;;;14.80;98.60;;;;;;5036171;28;20049;-64
2021/10/05 13:32:30;;;;;;;2.67;0.68;;;14.80;99.10;;;;;;5045156;28;20104;-65
2021/10/05 13:34:56;;;;;;;2.55;0.60;;;14.70;99.00;;;;;;5038122;28;20548;-64
2021/10/05 13:37:21;;;;;;;10.80;2.40;;;14.70;99.00;;;;;;5043451;28;20435;-64
2021/10/05 13:39:47;;;;;;;1.95;0.50;;;14.60;99.30;;;;;;5052557;28;20047;-64
2021/10/05 13:42:28;;;;;;;1.77;0.60;;;14.60;99.60;;;;;;5034707;28;20037;-64
2021/10/05 13:44:53;;;;;;;3.08;1.10;;;14.60;99.90;;;;;;5046330;28;20044;-64
2021/10/05 13:47:47;;;;;;;3.90;0.70;;;14.50;99.90;;;;;;5034656;28;20452;-64
2021/10/05 13:53:24;;;;;;;3.83;0.70;;;14.40;99.90;;;;;;5040679;28;20059;-64
2021/10/05 13:55:50;;;;;;;2.22;0.63;;;14.30;99.90;;;;;;5047668;28;20021;-64
2021/10/05 13:59:14;;;;;;;3.85;0.70;;;14.30;99.90;;;;;;5034465;28;20524;-64
2021/10/05 14:01:39;;;;;;;4.25;0.75;;;14.30;99.90;;;;;;5033147;28;20493;-64
2021/10/05 14:04:05;;;;;;;2.58;0.70;;;14.30;99.90;;;;;;5033917;28;20037;-64
2021/10/05 14:06:31;;;;;;;2.17;0.82;;;14.30;99.90;;;;;;5036605;28;20096;-64
2021/10/05 14:09:12;;;;;;;;;;;;;;;;;;;;;
2021/10/05 14:15:15;;;;;;;4.63;0.90;;;14.30;99.90;;;;;;5001376;28;20401;-64
2021/10/05 14:17:41;;;;;;;3.97;1.13;;;14.20;99.90;;;;;;5053058;28;20028;-64
2021/10/05 14:20:07;;;;;;;3.03;1.20;;;14.20;99.90;;;;;;5034454;28;20044;-64
2021/10/05 14:22:33;;;;;;;4.13;1.27;;;14.10;99.90;;;;;;5046838;28;20026;-64